sensor_id;sensor_type;location;lat;lon;timestamp;pressure;altitude;pressure_sealevel;temperature;humidity
78149;BME280;67396;42.664;23.382;2023-04-02T00:08:59;94061.84;;;8.02;57.45
78149;BME280;67396;42.664;23.382;2023-04-02T00:11:31;94058.75;;;8.18;56.30
78149;BME280;67396;42.664;23.382;2023-04-02T00:14:14;94056.38;;;8.27;56.01
78149;BME280;67396;42.664;23.382;2023-04-02T00:16:40;94057.16;;;8.20;55.21
78149;BME280;67396;42.664;23.382;2023-04-02T00:19:12;94058.34;;;8.26;55.21
78149;BME280;67396;42.664;23.382;2023-04-02T00:21:40;94061.06;;;8.30;55.69
78149;BME280;67396;42.664;23.382;2023-04-02T00:24:19;94057.94;;;8.28;55.93
78149;BME280;67396;42.664;23.382;2023-04-02T00:26:51;94048.19;;;8.38;55.07
78149;BME280;67396;42.664;23.382;2023-04-02T00:29:17;94046.22;;;8.38;54.87
78149;BME280;67396;42.664;23.382;2023-04-02T00:31:48;94044.66;;;8.30;55.49
78149;BME280;67396;42.664;23.382;2023-04-02T00:34:28;94040.38;;;8.08;56.50
78149;BME280;67396;42.664;23.382;2023-04-02T00:36:55;94053.25;;;7.72;59.90
78149;BME280;67396;42.664;23.382;2023-04-02T00:39:25;94060.25;;;7.55;61.19
78149;BME280;67396;42.664;23.382;2023-04-02T00:41:54;94062.59;;;7.53;61.70
78149;BME280;67396;42.664;23.382;2023-04-02T00:44:35;94048.53;;;7.51;61.90
78149;BME280;67396;42.664;23.382;2023-04-02T00:47:22;94054.38;;;7.56;61.97
78149;BME280;67396;42.664;23.382;2023-04-02T00:49:53;94055.16;;;7.57;62.10
78149;BME280;67396;42.664;23.382;2023-04-02T00:52:23;94055.16;;;7.53;62.50
78149;BME280;67396;42.664;23.382;2023-04-02T00:55:20;94059.84;;;7.46;62.44
78149;BME280;67396;42.664;23.382;2023-04-02T00:57:49;94051.91;;;7.12;64.01
78149;BME280;67396;42.664;23.382;2023-04-02T01:00:26;94054.63;;;7.05;64.33
78149;BME280;67396;42.664;23.382;2023-04-02T01:03:30;94065.16;;;7.00;64.52
78149;BME280;67396;42.664;23.382;2023-04-02T01:14:51;94061.53;;;6.74;65.46
78149;BME280;67396;42.664;23.382;2023-04-02T01:28:10;94074.16;;;6.38;66.29
78149;BME280;67396;42.664;23.382;2023-04-02T01:30:39;94062.31;;;6.17;66.42
78149;BME280;67396;42.664;23.382;2023-04-02T01:33:06;94076.41;;;5.82;67.69
78149;BME280;67396;42.664;23.382;2023-04-02T01:35:37;94076.78;;;5.77;67.94
78149;BME280;67396;42.664;23.382;2023-04-02T01:38:12;94078.81;;;5.87;67.73
78149;BME280;67396;42.664;23.382;2023-04-02T01:43:33;94070.44;;;6.06;67.82
78149;BME280;67396;42.664;23.382;2023-04-02T01:46:22;94053.47;;;6.30;72.90
78149;BME280;67396;42.664;23.382;2023-04-02T01:48:48;94060.94;;;6.44;67.80
78149;BME280;67396;42.664;23.382;2023-04-02T01:51:50;94061.00;;;5.93;66.96
78149;BME280;67396;42.664;23.382;2023-04-02T01:54:18;94058.63;;;5.91;67.84
78149;BME280;67396;42.664;23.382;2023-04-02T01:56:44;94060.38;;;6.17;67.34
78149;BME280;67396;42.664;23.382;2023-04-02T01:59:11;94058.94;;;6.30;67.07
78149;BME280;67396;42.664;23.382;2023-04-02T02:04:24;94060.31;;;6.65;65.51
78149;BME280;67396;42.664;23.382;2023-04-02T02:06:50;94057.69;;;6.90;64.01
78149;BME280;67396;42.664;23.382;2023-04-02T02:09:25;94057.38;;;7.09;63.02
78149;BME280;67396;42.664;23.382;2023-04-02T02:11:51;94052.31;;;7.14;62.64
78149;BME280;67396;42.664;23.382;2023-04-02T02:16:43;94065.53;;;6.98;64.16
78149;BME280;67396;42.664;23.382;2023-04-02T02:19:28;94063.56;;;6.26;66.98
78149;BME280;67396;42.664;23.382;2023-04-02T02:24:44;94065.94;;;5.84;69.13
78149;BME280;67396;42.664;23.382;2023-04-02T02:29:52;94064.53;;;5.97;68.71
78149;BME280;67396;42.664;23.382;2023-04-02T02:32:22;94069.53;;;5.91;68.42
78149;BME280;67396;42.664;23.382;2023-04-02T02:35:04;94066.97;;;5.68;68.99
78149;BME280;67396;42.664;23.382;2023-04-02T02:37:39;94071.59;;;5.61;69.40
78149;BME280;67396;42.664;23.382;2023-04-02T02:40:11;94064.78;;;5.85;68.84
78149;BME280;67396;42.664;23.382;2023-04-02T02:42:42;94059.53;;;6.06;68.05
78149;BME280;67396;42.664;23.382;2023-04-02T02:45:15;94053.31;;;6.09;67.79
78149;BME280;67396;42.664;23.382;2023-04-02T02:47:44;94056.28;;;5.90;68.25
78149;BME280;67396;42.664;23.382;2023-04-02T02:50:21;94056.41;;;6.04;68.29
78149;BME280;67396;42.664;23.382;2023-04-02T02:52:57;94057.31;;;6.22;67.48
78149;BME280;67396;42.664;23.382;2023-04-02T02:55:42;94070.25;;;6.36;67.10
78149;BME280;67396;42.664;23.382;2023-04-02T02:58:12;94061.78;;;6.52;66.87
78149;BME280;67396;42.664;23.382;2023-04-02T03:00:41;94060.75;;;6.74;65.65
78149;BME280;67396;42.664;23.382;2023-04-02T03:03:10;94067.34;;;6.73;65.33
78149;BME280;67396;42.664;23.382;2023-04-02T03:05:39;94071.63;;;6.70;65.18
78149;BME280;67396;42.664;23.382;2023-04-02T03:08:11;94063.06;;;6.72;65.32
78149;BME280;67396;42.664;23.382;2023-04-02T03:11:04;94065.38;;;6.70;65.86
78149;BME280;67396;42.664;23.382;2023-04-02T03:13:36;94067.69;;;6.64;65.63
78149;BME280;67396;42.664;23.382;2023-04-02T03:16:17;94070.41;;;6.57;65.97
78149;BME280;67396;42.664;23.382;2023-04-02T03:21:36;94077.38;;;6.55;66.11
78149;BME280;67396;42.664;23.382;2023-04-02T03:26:51;94081.03;;;6.76;65.26
78149;BME280;67396;42.664;23.382;2023-04-02T03:29:26;94081.44;;;6.82;64.88
78149;BME280;67396;42.664;23.382;2023-04-02T03:31:56;94075.97;;;6.82;65.32
78149;BME280;67396;42.664;23.382;2023-04-02T03:34:34;94073.69;;;6.91;64.97
78149;BME280;67396;42.664;23.382;2023-04-02T03:37:10;94079.56;;;7.00;64.60
78149;BME280;67396;42.664;23.382;2023-04-02T03:42:59;94087.78;;;7.07;64.21
78149;BME280;67396;42.664;23.382;2023-04-02T03:45:28;94080.69;;;6.85;65.24
78149;BME280;67396;42.664;23.382;2023-04-02T03:48:15;94078.84;;;6.38;66.67
78149;BME280;67396;42.664;23.382;2023-04-02T03:50:57;94079.25;;;6.43;66.50
78149;BME280;67396;42.664;23.382;2023-04-02T03:53:25;94075.44;;;6.55;66.70
78149;BME280;67396;42.664;23.382;2023-04-02T03:55:52;94089.03;;;6.52;66.70
78149;BME280;67396;42.664;23.382;2023-04-02T04:03:49;94079.34;;;6.58;65.79
78149;BME280;67396;42.664;23.382;2023-04-02T04:06:23;94081.19;;;6.43;66.54
78149;BME280;67396;42.664;23.382;2023-04-02T04:08:58;94089.13;;;6.08;67.64
78149;BME280;67396;42.664;23.382;2023-04-02T04:11:47;94096.69;;;5.84;68.58
78149;BME280;67396;42.664;23.382;2023-04-02T04:19:34;94097.09;;;6.34;66.44
78149;BME280;67396;42.664;23.382;2023-04-02T04:22:15;94097.78;;;6.20;66.82
78149;BME280;67396;42.664;23.382;2023-04-02T04:24:47;94104.06;;;6.24;66.74
78149;BME280;67396;42.664;23.382;2023-04-02T04:30:18;94112.56;;;6.19;67.28
78149;BME280;67396;42.664;23.382;2023-04-02T04:33:09;94114.91;;;6.21;66.80
78149;BME280;67396;42.664;23.382;2023-04-02T04:35:37;94111.47;;;6.27;66.89
78149;BME280;67396;42.664;23.382;2023-04-02T04:38:12;94113.16;;;6.46;65.89
78149;BME280;67396;42.664;23.382;2023-04-02T04:40:48;94120.41;;;6.24;66.47
78149;BME280;67396;42.664;23.382;2023-04-02T04:43:32;94123.34;;;6.05;66.44
78149;BME280;67396;42.664;23.382;2023-04-02T04:46:29;94126.56;;;6.18;66.15
78149;BME280;67396;42.664;23.382;2023-04-02T04:52:18;94124.50;;;6.55;65.42
78149;BME280;67396;42.664;23.382;2023-04-02T04:54:41;94120.13;;;6.43;65.76
78149;BME280;67396;42.664;23.382;2023-04-02T04:59:56;94122.63;;;6.12;67.41
78149;BME280;67396;42.664;23.382;2023-04-02T05:02:30;94125.84;;;6.24;67.02
78149;BME280;67396;42.664;23.382;2023-04-02T05:04:58;94125.63;;;6.47;66.47
78149;BME280;67396;42.664;23.382;2023-04-02T05:07:27;94129.13;;;7.09;64.54
78149;BME280;67396;42.664;23.382;2023-04-02T05:09:58;94128.00;;;7.25;62.89
78149;BME280;67396;42.664;23.382;2023-04-02T05:12:36;94118.69;;;7.33;62.82
78149;BME280;67396;42.664;23.382;2023-04-02T05:15:16;94130.03;;;7.49;62.19
78149;BME280;67396;42.664;23.382;2023-04-02T05:18:07;94126.25;;;7.92;60.70
78149;BME280;67396;42.664;23.382;2023-04-02T05:20:58;94132.91;;;8.27;59.97
78149;BME280;67396;42.664;23.382;2023-04-02T05:23:28;94127.47;;;8.62;59.46
78149;BME280;67396;42.664;23.382;2023-04-02T05:28:39;94130.00;;;9.44;56.41
78149;BME280;67396;42.664;23.382;2023-04-02T05:31:11;94131.84;;;9.72;55.64
78149;BME280;67396;42.664;23.382;2023-04-02T05:33:44;94136.63;;;9.50;56.53
78149;BME280;67396;42.664;23.382;2023-04-02T05:36:18;94132.66;;;9.65;55.20
78149;BME280;67396;42.664;23.382;2023-04-02T05:38:46;94135.72;;;9.78;55.90
78149;BME280;67396;42.664;23.382;2023-04-02T05:44:06;94150.06;;;9.13;56.60
78149;BME280;67396;42.664;23.382;2023-04-02T05:46:45;94155.28;;;9.80;55.52
78149;BME280;67396;42.664;23.382;2023-04-02T05:49:19;94148.63;;;10.47;51.76
78149;BME280;67396;42.664;23.382;2023-04-02T05:51:50;94141.22;;;10.88;50.37
78149;BME280;67396;42.664;23.382;2023-04-02T05:54:31;94155.13;;;10.67;51.53
78149;BME280;67396;42.664;23.382;2023-04-02T05:57:03;94158.13;;;10.83;52.37
78149;BME280;67396;42.664;23.382;2023-04-02T05:59:42;94153.94;;;10.68;51.46
78149;BME280;67396;42.664;23.382;2023-04-02T06:02:35;94154.09;;;10.99;51.74
78149;BME280;67396;42.664;23.382;2023-04-02T06:07:54;94149.09;;;10.83;51.71
78149;BME280;67396;42.664;23.382;2023-04-02T06:11:03;94159.28;;;10.38;52.32
78149;BME280;67396;42.664;23.382;2023-04-02T06:13:30;94159.94;;;11.01;51.25
78149;BME280;67396;42.664;23.382;2023-04-02T06:15:55;94160.69;;;11.05;51.49
78149;BME280;67396;42.664;23.382;2023-04-02T06:18:26;94160.72;;;11.76;48.74
78149;BME280;67396;42.664;23.382;2023-04-02T06:20:53;94168.34;;;11.95;47.11
78149;BME280;67396;42.664;23.382;2023-04-02T06:23:55;94163.47;;;12.33;46.11
78149;BME280;67396;42.664;23.382;2023-04-02T06:26:23;94161.38;;;12.68;46.27
78149;BME280;67396;42.664;23.382;2023-04-02T06:29:03;94170.00;;;12.16;47.79
78149;BME280;67396;42.664;23.382;2023-04-02T06:31:41;94161.69;;;11.93;48.30
78149;BME280;67396;42.664;23.382;2023-04-02T06:34:35;94169.09;;;12.26;46.63
78149;BME280;67396;42.664;23.382;2023-04-02T06:37:22;94167.88;;;12.81;45.60
78149;BME280;67396;42.664;23.382;2023-04-02T06:39:49;94158.81;;;12.57;45.97
78149;BME280;67396;42.664;23.382;2023-04-02T06:42:21;94157.91;;;12.64;45.77
78149;BME280;67396;42.664;23.382;2023-04-02T06:44:48;94159.88;;;13.13;44.88
78149;BME280;67396;42.664;23.382;2023-04-02T06:50:07;94168.41;;;12.46;46.44
78149;BME280;67396;42.664;23.382;2023-04-02T06:52:43;94168.19;;;12.60;47.07
78149;BME280;67396;42.664;23.382;2023-04-02T06:57:45;94171.91;;;13.00;44.67
78149;BME280;67396;42.664;23.382;2023-04-02T07:02:53;94170.75;;;13.44;43.90
78149;BME280;67396;42.664;23.382;2023-04-02T07:05:20;94178.69;;;13.18;44.50
78149;BME280;67396;42.664;23.382;2023-04-02T07:07:45;94184.75;;;13.06;44.46
78149;BME280;67396;42.664;23.382;2023-04-02T07:10:11;94190.88;;;12.67;45.86
78149;BME280;67396;42.664;23.382;2023-04-02T07:12:37;94187.06;;;12.85;46.00
78149;BME280;67396;42.664;23.382;2023-04-02T07:15:03;94186.19;;;13.18;45.55
78149;BME280;67396;42.664;23.382;2023-04-02T07:17:28;94186.41;;;12.77;46.02
78149;BME280;67396;42.664;23.382;2023-04-02T07:19:54;94190.94;;;12.91;45.46
78149;BME280;67396;42.664;23.382;2023-04-02T07:22:21;94192.72;;;13.28;44.62
78149;BME280;67396;42.664;23.382;2023-04-02T07:24:47;94193.25;;;13.62;44.60
78149;BME280;67396;42.664;23.382;2023-04-02T07:27:13;94189.91;;;14.30;42.43
78149;BME280;67396;42.664;23.382;2023-04-02T07:29:39;94191.91;;;14.65;41.77
78149;BME280;67396;42.664;23.382;2023-04-02T07:32:13;94198.59;;;15.00;41.47
78149;BME280;67396;42.664;23.382;2023-04-02T07:34:39;94195.91;;;15.29;40.16
78149;BME280;67396;42.664;23.382;2023-04-02T07:37:05;94198.31;;;15.27;41.07
78149;BME280;67396;42.664;23.382;2023-04-02T07:39:31;94204.88;;;15.01;41.06
78149;BME280;67396;42.664;23.382;2023-04-02T07:41:59;94199.19;;;15.24;40.81
78149;BME280;67396;42.664;23.382;2023-04-02T07:44:26;94198.22;;;15.47;40.30
78149;BME280;67396;42.664;23.382;2023-04-02T07:46:51;94192.88;;;15.85;40.14
78149;BME280;67396;42.664;23.382;2023-04-02T07:49:17;94195.88;;;15.62;40.02
78149;BME280;67396;42.664;23.382;2023-04-02T07:51:42;94195.69;;;14.36;41.47
78149;BME280;67396;42.664;23.382;2023-04-02T07:54:08;94186.38;;;14.49;42.44
78149;BME280;67396;42.664;23.382;2023-04-02T07:56:35;94190.34;;;15.46;40.88
78149;BME280;67396;42.664;23.382;2023-04-02T07:59:00;94184.75;;;16.07;39.27
78149;BME280;67396;42.664;23.382;2023-04-02T08:01:27;94180.06;;;16.45;40.42
78149;BME280;67396;42.664;23.382;2023-04-02T08:03:56;94191.41;;;16.89;38.96
78149;BME280;67396;42.664;23.382;2023-04-02T08:06:23;94190.16;;;15.98;39.09
78149;BME280;67396;42.664;23.382;2023-04-02T08:08:49;94184.84;;;16.03;39.75
78149;BME280;67396;42.664;23.382;2023-04-02T08:11:15;94186.06;;;15.28;37.00
78149;BME280;67396;42.664;23.382;2023-04-02T08:13:41;94185.66;;;14.61;37.98
78149;BME280;67396;42.664;23.382;2023-04-02T08:16:07;94184.13;;;14.60;39.01
78149;BME280;67396;42.664;23.382;2023-04-02T08:18:33;94188.16;;;14.40;38.48
78149;BME280;67396;42.664;23.382;2023-04-02T08:20:59;94189.97;;;14.46;38.36
78149;BME280;67396;42.664;23.382;2023-04-02T08:23:25;94185.84;;;14.54;38.88
78149;BME280;67396;42.664;23.382;2023-04-02T08:25:52;94190.88;;;14.59;41.31
78149;BME280;67396;42.664;23.382;2023-04-02T08:28:18;94181.16;;;14.51;39.50
78149;BME280;67396;42.664;23.382;2023-04-02T08:30:44;94189.50;;;14.84;39.50
78149;BME280;67396;42.664;23.382;2023-04-02T08:33:09;94189.50;;;14.84;38.14
78149;BME280;67396;42.664;23.382;2023-04-02T08:35:38;94188.19;;;14.88;37.37
78149;BME280;67396;42.664;23.382;2023-04-02T08:38:05;94202.00;;;14.16;38.00
78149;BME280;67396;42.664;23.382;2023-04-02T08:40:44;94185.63;;;13.89;40.53
78149;BME280;67396;42.664;23.382;2023-04-02T08:48:15;94194.94;;;13.56;40.59
78149;BME280;67396;42.664;23.382;2023-04-02T08:50:44;94192.78;;;13.87;40.31
78149;BME280;67396;42.664;23.382;2023-04-02T08:53:19;94193.81;;;14.13;40.59
78149;BME280;67396;42.664;23.382;2023-04-02T08:58:53;94198.00;;;14.01;38.67
78149;BME280;67396;42.664;23.382;2023-04-02T09:04:16;94187.78;;;13.59;40.35
78149;BME280;67396;42.664;23.382;2023-04-02T09:06:46;94192.59;;;13.54;40.03
78149;BME280;67396;42.664;23.382;2023-04-02T09:09:15;94197.31;;;13.34;41.38
78149;BME280;67396;42.664;23.382;2023-04-02T09:11:56;94196.56;;;13.30;40.93
78149;BME280;67396;42.664;23.382;2023-04-02T09:17:25;94194.38;;;13.84;39.93
78149;BME280;67396;42.664;23.382;2023-04-02T09:22:32;94196.47;;;13.57;39.15
78149;BME280;67396;42.664;23.382;2023-04-02T09:25:03;94195.50;;;13.67;41.50
78149;BME280;67396;42.664;23.382;2023-04-02T09:27:34;94199.22;;;13.80;40.47
78149;BME280;67396;42.664;23.382;2023-04-02T09:32:52;94196.06;;;14.18;38.39
78149;BME280;67396;42.664;23.382;2023-04-02T09:41:18;94179.94;;;14.16;39.08
78149;BME280;67396;42.664;23.382;2023-04-02T09:43:44;94187.88;;;13.75;39.30
78149;BME280;67396;42.664;23.382;2023-04-02T09:48:42;94189.72;;;13.18;40.59
78149;BME280;67396;42.664;23.382;2023-04-02T09:53:39;94184.22;;;13.38;42.70
78149;BME280;67396;42.664;23.382;2023-04-02T09:56:09;94184.63;;;13.60;42.01
78149;BME280;67396;42.664;23.382;2023-04-02T09:58:35;94166.31;;;13.70;40.87
78149;BME280;67396;42.664;23.382;2023-04-02T10:01:01;94178.78;;;13.54;40.83
78149;BME280;67396;42.664;23.382;2023-04-02T10:03:29;94176.41;;;13.56;40.39
78149;BME280;67396;42.664;23.382;2023-04-02T10:08:33;94174.63;;;13.46;39.69
78149;BME280;67396;42.664;23.382;2023-04-02T10:11:03;94171.59;;;13.41;39.64
78149;BME280;67396;42.664;23.382;2023-04-02T10:18:53;94168.88;;;13.80;39.60
78149;BME280;67396;42.664;23.382;2023-04-02T10:21:30;94156.69;;;13.98;38.76
78149;BME280;67396;42.664;23.382;2023-04-02T10:23:57;94158.78;;;14.10;37.59
78149;BME280;67396;42.664;23.382;2023-04-02T10:32:41;94156.47;;;13.49;39.34
78149;BME280;67396;42.664;23.382;2023-04-02T10:38:08;94161.84;;;13.36;39.46
78149;BME280;67396;42.664;23.382;2023-04-02T10:40:59;94166.09;;;13.17;40.30
78149;BME280;67396;42.664;23.382;2023-04-02T10:48:37;94170.28;;;13.26;40.44
78149;BME280;67396;42.664;23.382;2023-04-02T10:53:48;94159.06;;;13.36;40.54
78149;BME280;67396;42.664;23.382;2023-04-02T10:56:17;94158.06;;;13.46;39.94
78149;BME280;67396;42.664;23.382;2023-04-02T10:58:57;94160.16;;;13.62;40.44
78149;BME280;67396;42.664;23.382;2023-04-02T11:01:27;94152.66;;;13.82;39.96
78149;BME280;67396;42.664;23.382;2023-04-02T11:04:05;94157.31;;;13.85;39.10
78149;BME280;67396;42.664;23.382;2023-04-02T11:06:52;94150.41;;;13.77;39.11
78149;BME280;67396;42.664;23.382;2023-04-02T11:09:24;94160.09;;;13.85;38.84
78149;BME280;67396;42.664;23.382;2023-04-02T11:11:53;94155.50;;;13.79;38.59
78149;BME280;67396;42.664;23.382;2023-04-02T11:14:26;94151.75;;;13.89;38.33
78149;BME280;67396;42.664;23.382;2023-04-02T11:16:56;94142.38;;;14.03;38.57
78149;BME280;67396;42.664;23.382;2023-04-02T11:19:28;94143.69;;;13.98;38.57
78149;BME280;67396;42.664;23.382;2023-04-02T11:21:55;94140.25;;;13.90;39.95
78149;BME280;67396;42.664;23.382;2023-04-02T11:29:48;94142.75;;;13.85;38.68
78149;BME280;67396;42.664;23.382;2023-04-02T11:32:41;94131.72;;;13.65;38.85
78149;BME280;67396;42.664;23.382;2023-04-02T11:40:50;94124.63;;;14.04;37.37
78149;BME280;67396;42.664;23.382;2023-04-02T11:48:49;94131.31;;;13.86;39.03
78149;BME280;67396;42.664;23.382;2023-04-02T11:53:52;94130.94;;;13.84;37.50
78149;BME280;67396;42.664;23.382;2023-04-02T11:56:57;94124.28;;;13.82;37.51
78149;BME280;67396;42.664;23.382;2023-04-02T12:02:27;94118.91;;;13.94;38.33
78149;BME280;67396;42.664;23.382;2023-04-02T12:05:14;94113.75;;;13.97;38.43
78149;BME280;67396;42.664;23.382;2023-04-02T12:10:53;94117.91;;;14.05;38.30
78149;BME280;67396;42.664;23.382;2023-04-02T12:16:09;94116.38;;;13.84;38.02
78149;BME280;67396;42.664;23.382;2023-04-02T12:18:50;94127.13;;;13.78;37.90
78149;BME280;67396;42.664;23.382;2023-04-02T12:21:22;94115.38;;;13.74;38.76
78149;BME280;67396;42.664;23.382;2023-04-02T12:23:51;94111.69;;;13.81;38.47
78149;BME280;67396;42.664;23.382;2023-04-02T12:29:24;94117.38;;;13.74;38.60
78149;BME280;67396;42.664;23.382;2023-04-02T12:31:52;94112.72;;;13.71;38.18
78149;BME280;67396;42.664;23.382;2023-04-02T12:34:19;94123.03;;;13.67;38.44
78149;BME280;67396;42.664;23.382;2023-04-02T12:37:03;94118.34;;;13.64;38.24
78149;BME280;67396;42.664;23.382;2023-04-02T12:39:31;94113.75;;;13.57;37.79
78149;BME280;67396;42.664;23.382;2023-04-02T12:41:57;94108.09;;;13.64;37.50
78149;BME280;67396;42.664;23.382;2023-04-02T12:44:28;94112.63;;;13.74;37.68
78149;BME280;67396;42.664;23.382;2023-04-02T12:46:54;94107.31;;;13.83;37.31
78149;BME280;67396;42.664;23.382;2023-04-02T12:52:21;94103.41;;;14.01;36.74
78149;BME280;67396;42.664;23.382;2023-04-02T12:54:49;94101.63;;;13.90;36.89
78149;BME280;67396;42.664;23.382;2023-04-02T12:57:36;94092.31;;;13.84;37.37
78149;BME280;67396;42.664;23.382;2023-04-02T13:03:20;94099.19;;;13.76;37.34
78149;BME280;67396;42.664;23.382;2023-04-02T13:05:55;94090.56;;;13.74;36.93
78149;BME280;67396;42.664;23.382;2023-04-02T13:08:29;94087.31;;;13.79;37.94
78149;BME280;67396;42.664;23.382;2023-04-02T13:10:59;94088.78;;;13.84;36.85
78149;BME280;67396;42.664;23.382;2023-04-02T13:13:28;94083.56;;;13.89;36.66
78149;BME280;67396;42.664;23.382;2023-04-02T13:16:20;94088.50;;;13.98;36.80
78149;BME280;67396;42.664;23.382;2023-04-02T13:18:48;94088.41;;;14.02;36.31
78149;BME280;67396;42.664;23.382;2023-04-02T13:21:29;94083.41;;;13.97;35.74
78149;BME280;67396;42.664;23.382;2023-04-02T13:23:56;94087.47;;;14.08;35.72
78149;BME280;67396;42.664;23.382;2023-04-02T13:26:26;94080.50;;;14.20;35.48
78149;BME280;67396;42.664;23.382;2023-04-02T13:29:02;94093.16;;;14.17;35.51
78149;BME280;67396;42.664;23.382;2023-04-02T13:31:30;94089.13;;;14.22;35.62
78149;BME280;67396;42.664;23.382;2023-04-02T13:33:56;94085.84;;;14.11;35.59
78149;BME280;67396;42.664;23.382;2023-04-02T13:36:21;94078.16;;;14.18;35.47
78149;BME280;67396;42.664;23.382;2023-04-02T13:38:46;94078.09;;;14.38;35.37
78149;BME280;67396;42.664;23.382;2023-04-02T13:43:46;94062.34;;;14.39;34.96
78149;BME280;67396;42.664;23.382;2023-04-02T13:46:19;94061.38;;;14.45;34.80
78149;BME280;67396;42.664;23.382;2023-04-02T13:48:46;94061.22;;;14.52;35.41
78149;BME280;67396;42.664;23.382;2023-04-02T13:51:17;94079.50;;;14.62;35.66
78149;BME280;67396;42.664;23.382;2023-04-02T13:53:44;94066.47;;;14.63;34.37
78149;BME280;67396;42.664;23.382;2023-04-02T13:56:11;94062.34;;;14.55;33.67
78149;BME280;67396;42.664;23.382;2023-04-02T13:58:37;94061.66;;;14.67;33.95
78149;BME280;67396;42.664;23.382;2023-04-02T14:01:02;94068.19;;;14.73;33.68
78149;BME280;67396;42.664;23.382;2023-04-02T14:03:28;94068.22;;;14.57;32.48
78149;BME280;67396;42.664;23.382;2023-04-02T14:06:44;94063.47;;;14.57;32.94
78149;BME280;67396;42.664;23.382;2023-04-02T14:11:44;94061.06;;;14.59;33.28
78149;BME280;67396;42.664;23.382;2023-04-02T14:22:53;94063.22;;;14.68;32.99
78149;BME280;67396;42.664;23.382;2023-04-02T14:25:33;94063.47;;;14.74;32.47
78149;BME280;67396;42.664;23.382;2023-04-02T14:34:28;94047.84;;;14.67;33.36
78149;BME280;67396;42.664;23.382;2023-04-02T14:39:52;94055.41;;;14.79;34.17
78149;BME280;67396;42.664;23.382;2023-04-02T14:42:30;94055.09;;;14.77;32.93
78149;BME280;67396;42.664;23.382;2023-04-02T14:48:45;94057.41;;;14.79;34.17
78149;BME280;67396;42.664;23.382;2023-04-02T14:51:35;94067.34;;;14.76;32.13
78149;BME280;67396;42.664;23.382;2023-04-02T14:54:11;94067.00;;;14.74;32.17
78149;BME280;67396;42.664;23.382;2023-04-02T14:56:52;94060.28;;;14.75;32.50
78149;BME280;67396;42.664;23.382;2023-04-02T15:00:07;94063.81;;;14.76;32.44
78149;BME280;67396;42.664;23.382;2023-04-02T15:02:48;94067.25;;;14.63;32.79
78149;BME280;67396;42.664;23.382;2023-04-02T15:05:23;94069.34;;;14.59;32.77
78149;BME280;67396;42.664;23.382;2023-04-02T15:10:32;94073.81;;;14.53;33.05
78149;BME280;67396;42.664;23.382;2023-04-02T15:13:05;94076.84;;;14.59;33.17
78149;BME280;67396;42.664;23.382;2023-04-02T15:18:05;94073.81;;;14.53;32.27
78149;BME280;67396;42.664;23.382;2023-04-02T15:26:04;94082.97;;;14.50;34.32
78149;BME280;67396;42.664;23.382;2023-04-02T15:28:41;94073.13;;;14.49;33.99
78149;BME280;67396;42.664;23.382;2023-04-02T15:31:12;94080.72;;;14.45;33.80
78149;BME280;67396;42.664;23.382;2023-04-02T15:33:47;94084.00;;;14.56;33.88
78149;BME280;67396;42.664;23.382;2023-04-02T15:36:27;94079.09;;;14.64;33.42
78149;BME280;67396;42.664;23.382;2023-04-02T15:42:03;94077.88;;;14.49;32.16
78149;BME280;67396;42.664;23.382;2023-04-02T15:44:30;94085.25;;;14.36;32.75
78149;BME280;67396;42.664;23.382;2023-04-02T15:47:19;94081.28;;;14.37;32.64
78149;BME280;67396;42.664;23.382;2023-04-02T15:50:10;94087.41;;;14.28;32.89
78149;BME280;67396;42.664;23.382;2023-04-02T15:55:44;94096.53;;;14.25;33.76
78149;BME280;67396;42.664;23.382;2023-04-02T16:06:26;94094.81;;;14.15;32.59
78149;BME280;67396;42.664;23.382;2023-04-02T16:09:25;94094.19;;;14.07;33.38
78149;BME280;67396;42.664;23.382;2023-04-02T16:12:18;94098.06;;;14.10;32.77
78149;BME280;67396;42.664;23.382;2023-04-02T16:14:46;94100.41;;;14.11;31.95
78149;BME280;67396;42.664;23.382;2023-04-02T16:17:21;94101.00;;;14.03;31.78
78149;BME280;67396;42.664;23.382;2023-04-02T16:19:52;94105.66;;;14.06;32.27
78149;BME280;67396;42.664;23.382;2023-04-02T16:22:28;94100.81;;;14.10;32.21
78149;BME280;67396;42.664;23.382;2023-04-02T16:25:16;94101.53;;;14.14;31.72
78149;BME280;67396;42.664;23.382;2023-04-02T16:28:14;94104.00;;;14.08;31.39
78149;BME280;67396;42.664;23.382;2023-04-02T16:30:56;94105.97;;;13.91;31.17
78149;BME280;67396;42.664;23.382;2023-04-02T16:33:59;94105.28;;;13.87;31.34
78149;BME280;67396;42.664;23.382;2023-04-02T16:36:34;94107.47;;;13.76;31.96
78149;BME280;67396;42.664;23.382;2023-04-02T16:53:31;94109.13;;;13.54;33.59
78149;BME280;67396;42.664;23.382;2023-04-02T16:56:26;94113.41;;;13.55;33.71
78149;BME280;67396;42.664;23.382;2023-04-02T16:59:16;94114.63;;;13.54;33.93
78149;BME280;67396;42.664;23.382;2023-04-02T17:02:20;94123.19;;;13.60;35.28
78149;BME280;67396;42.664;23.382;2023-04-02T17:05:01;94127.34;;;13.48;33.98
78149;BME280;67396;42.664;23.382;2023-04-02T17:07:43;94133.78;;;13.61;33.22
78149;BME280;67396;42.664;23.382;2023-04-02T17:15:39;94144.09;;;13.97;32.56
78149;BME280;67396;42.664;23.382;2023-04-02T17:18:20;94143.31;;;13.96;33.51
78149;BME280;67396;42.664;23.382;2023-04-02T17:20:48;94145.28;;;13.96;33.70
78149;BME280;67396;42.664;23.382;2023-04-02T17:23:15;94151.66;;;13.92;33.61
78149;BME280;67396;42.664;23.382;2023-04-02T17:25:49;94147.63;;;13.77;34.46
78149;BME280;67396;42.664;23.382;2023-04-02T17:28:21;94155.13;;;13.77;34.30
78149;BME280;67396;42.664;23.382;2023-04-02T17:30:53;94158.88;;;13.67;34.38
78149;BME280;67396;42.664;23.382;2023-04-02T17:33:20;94176.34;;;13.60;34.81
78149;BME280;67396;42.664;23.382;2023-04-02T17:46:59;94182.41;;;13.51;35.66